Vernon, Vermont
Current Conditions -  °F | °C
As of 1:15 AM on Sunday 26 Oct 2014 (Local Time) from KEEN Reporting Station
Clear Clear  
Wind Chill: 45°   Ceiling: Unl
Heat Index: 45°   Visibility: 5mi
Dew Point: 37°   Wind: 3mph
Humidity: 76%   Direction: 290°WNW
Pressure: 29.49"   Gusts: NA
Location:  42.76°N, 72.51°W
Report Text: KEEN 260515Z AUTO 29003KT 5SM CLR 07/03 A2949 RMK AO1
Loading
Personal Weather Stations






























Interactive Weather Map
Tropical Storm Tracking
New forecast layout! Learn more

10-Day Weather Forecast

Advertisements
Track Severe Weather on mobile